Terminal Aerodrome Forecast
Issued by NWS

Home | Current Version | Previous Version | Text Only | Print | Product List | Glossary On
Versions: 1 2 3 4 5 6 7 8 9 10 11 12 13 14 15 16 17 18 19 20 21
022
FTUS44 KBMX 220547
TAFMGM
TAF
KMGM 220547Z 2206/2306 18006KT P6SM SKC
     FM220800 13004KT 5SM BR OVC015
     FM221100 12004KT 2SM BR OVC007
     FM221400 14007KT P6SM OVC015
     FM221600 17007KT P6SM BKN025
     FM221800 17008KT P6SM BKN040
     FM230000 VRB02KT P6SM SKC=

USA.gov is the U.S. government's official web portal to all federal, state and local government web resources and services.